createdAt,value
2018-04-14T00:02:16.679Z,9.90
2018-04-14T00:04:43.713Z,9.80
2018-04-14T00:07:11.029Z,9.80
2018-04-14T00:09:38.217Z,9.80
2018-04-14T00:12:06.185Z,9.70
2018-04-14T00:14:33.537Z,9.70
2018-04-14T00:17:00.648Z,9.70
2018-04-14T00:19:27.787Z,9.70
2018-04-14T00:21:54.982Z,9.70
2018-04-14T00:24:22.153Z,9.70
2018-04-14T00:26:49.340Z,9.80
2018-04-14T00:29:16.524Z,9.80
2018-04-14T00:31:43.737Z,9.90
2018-04-14T00:34:10.850Z,9.90
2018-04-14T00:36:38.128Z,10.00
2018-04-14T00:39:06.122Z,9.90
2018-04-14T00:41:33.284Z,9.90
2018-04-14T00:44:00.428Z,9.80
2018-04-14T00:46:27.561Z,9.80
2018-04-14T00:48:54.697Z,9.80
2018-04-14T00:51:21.873Z,9.80
2018-04-14T00:53:49.199Z,9.70
2018-04-14T00:56:17.210Z,9.70
2018-04-14T00:58:45.115Z,9.60
2018-04-14T01:01:12.229Z,9.60
2018-04-14T01:03:39.456Z,9.60
2018-04-14T01:06:06.877Z,9.60
2018-04-14T01:08:34.017Z,9.60
2018-04-14T01:11:01.170Z,9.60
2018-04-14T01:13:28.537Z,9.50
2018-04-14T01:15:55.673Z,9.40
2018-04-14T01:18:22.864Z,9.50
2018-04-14T01:20:49.959Z,9.40
2018-04-14T01:23:17.412Z,9.30
2018-04-14T01:25:44.735Z,9.30
2018-04-14T01:28:12.066Z,9.30
2018-04-14T01:30:39.228Z,9.40
2018-04-14T01:33:06.338Z,9.40
2018-04-14T01:35:33.475Z,9.30
2018-04-14T01:38:00.579Z,9.30
2018-04-14T01:40:28.487Z,9.30
2018-04-14T01:42:55.694Z,9.20
2018-04-14T01:45:22.841Z,9.30
2018-04-14T01:47:49.892Z,9.30
2018-04-14T01:50:16.917Z,9.30
2018-04-14T01:52:44.726Z,9.20
2018-04-14T01:55:11.708Z,9.20
2018-04-14T01:57:39.499Z,9.20
2018-04-14T02:00:06.556Z,9.10
2018-04-14T02:02:33.580Z,9.20
2018-04-14T02:05:01.340Z,9.10
2018-04-14T02:07:28.816Z,9.10
2018-04-14T02:09:56.146Z,9.20
2018-04-14T02:12:23.320Z,9.20
2018-04-14T02:14:50.336Z,9.20
2018-04-14T02:17:18.114Z,9.20
2018-04-14T02:19:45.124Z,9.20
2018-04-14T02:22:12.111Z,9.20
2018-04-14T02:24:39.848Z,9.20
2018-04-14T02:27:07.604Z,9.20
2018-04-14T02:29:35.004Z,9.10
2018-04-14T02:32:02.160Z,9.20
2018-04-14T02:34:29.589Z,9.20
2018-04-14T02:36:56.695Z,9.20
2018-04-14T02:39:23.711Z,9.20
2018-04-14T02:41:50.795Z,9.30
2018-04-14T02:44:17.787Z,9.20
2018-04-14T02:46:44.787Z,9.10
2018-04-14T02:49:11.819Z,9.10
2018-04-14T02:51:39.256Z,9.00
2018-04-14T02:54:06.314Z,9.00
2018-04-14T02:56:33.316Z,9.00
2018-04-14T02:59:01.079Z,8.80
2018-04-14T03:01:28.878Z,8.80
2018-04-14T03:03:55.892Z,8.80
2018-04-14T03:06:22.921Z,8.80
2018-04-14T03:08:49.940Z,8.60
2018-04-14T03:11:16.984Z,8.60
2018-04-14T03:13:44.008Z,8.50
2018-04-14T03:16:11.009Z,8.50
2018-04-14T03:18:38.040Z,8.50
2018-04-14T03:21:05.031Z,8.50
2018-04-14T03:23:32.036Z,8.50
2018-04-14T03:25:59.091Z,8.50
2018-04-14T03:28:26.126Z,8.40
2018-04-14T03:30:53.178Z,8.40
2018-04-14T03:33:20.184Z,8.40
2018-04-14T03:35:47.183Z,8.40
2018-04-14T03:38:14.960Z,8.20
2018-04-14T03:40:42.980Z,8.20
2018-04-14T03:43:10.408Z,8.20
2018-04-14T03:45:37.440Z,8.20
2018-04-14T03:48:05.222Z,8.10
2018-04-14T03:50:32.541Z,8.10
2018-04-14T03:52:59.799Z,8.10
2018-04-14T03:55:26.984Z,8.10
2018-04-14T03:57:54.815Z,8.10
2018-04-14T04:00:21.936Z,8.10
2018-04-14T04:02:48.956Z,8.10
2018-04-14T04:05:15.966Z,8.20
2018-04-14T04:07:49.498Z,8.20
2018-04-14T04:10:16.509Z,8.10
2018-04-14T04:12:44.288Z,8.00
2018-04-14T04:15:12.038Z,7.90
2018-04-14T04:17:39.426Z,7.90
2018-04-14T04:20:19.657Z,7.80
2018-04-14T04:23:05.221Z,7.80
2018-04-14T04:25:39.929Z,7.80
2018-04-14T04:28:07.438Z,7.70
2018-04-14T04:30:34.763Z,7.70
2018-04-14T04:33:02.106Z,7.70
2018-04-14T04:35:30.185Z,7.70
2018-04-14T04:37:57.326Z,7.70
2018-04-14T04:40:25.273Z,7.70
2018-04-14T04:42:52.753Z,7.70
2018-04-14T04:45:19.844Z,7.70
2018-04-14T04:47:46.863Z,7.70
2018-04-14T04:50:14.296Z,7.80
2018-04-14T04:52:41.526Z,7.80
2018-04-14T04:55:08.742Z,7.80
2018-04-14T04:57:35.849Z,7.70
2018-04-14T05:00:02.944Z,7.80
2018-04-14T05:02:30.781Z,7.80
2018-04-14T05:04:58.557Z,7.80
2018-04-14T05:07:26.377Z,7.80
2018-04-14T05:09:53.651Z,7.80
2018-04-14T05:12:20.712Z,7.90
2018-04-14T05:14:48.020Z,7.90
2018-04-14T05:17:16.176Z,8.00
2018-04-14T05:19:43.323Z,8.10
2018-04-14T05:22:10.408Z,8.10
2018-04-14T05:24:37.921Z,8.10
2018-04-14T05:27:05.077Z,8.20
2018-04-14T05:29:32.212Z,8.30
2018-04-14T05:31:59.288Z,8.20
2018-04-14T05:34:26.582Z,8.30
2018-04-14T05:36:53.660Z,8.40
2018-04-14T05:39:21.104Z,8.60
2018-04-14T05:41:48.264Z,8.70
2018-04-14T05:44:16.030Z,8.90
2018-04-14T05:46:43.796Z,9.00
2018-04-14T05:49:11.158Z,9.00
2018-04-14T05:51:38.256Z,9.10
2018-04-14T05:54:05.288Z,9.20
2018-04-14T05:56:32.295Z,9.30
2018-04-14T05:58:59.597Z,9.50
2018-04-14T06:01:26.760Z,9.60
2018-04-14T06:03:53.756Z,9.70
2018-04-14T06:06:21.076Z,9.80
2018-04-14T06:08:49.268Z,9.90
2018-04-14T06:11:17.166Z,10.00
2018-04-14T06:13:44.169Z,9.90
2018-04-14T06:16:12.268Z,10.10
2018-04-14T06:18:39.457Z,10.10
2018-04-14T06:21:06.589Z,10.20
2018-04-14T06:23:33.737Z,10.30
2018-04-14T06:26:01.065Z,10.30
2018-04-14T06:28:28.325Z,10.40
2018-04-14T06:30:56.239Z,10.60
2018-04-14T06:33:24.204Z,10.70
2018-04-14T06:35:51.539Z,10.70
2018-04-14T06:38:18.703Z,10.80
2018-04-14T06:40:46.518Z,10.90
2018-04-14T06:43:14.503Z,11.00
2018-04-14T06:45:41.638Z,11.00
2018-04-14T06:48:08.695Z,11.20
2018-04-14T06:50:35.867Z,11.30
2018-04-14T06:53:03.526Z,11.30
2018-04-14T06:55:30.657Z,11.40
2018-04-14T06:57:58.068Z,11.40
2018-04-14T07:00:25.143Z,11.50
2018-04-14T07:02:53.076Z,11.60
2018-04-14T07:05:20.277Z,11.60
2018-04-14T07:07:47.387Z,11.70
2018-04-14T07:10:14.498Z,11.80
2018-04-14T07:12:41.784Z,11.80
2018-04-14T07:15:09.905Z,11.90
2018-04-14T07:17:37.102Z,11.90
2018-04-14T07:20:04.213Z,12.00
2018-04-14T07:22:31.325Z,12.10
2018-04-14T07:24:58.328Z,12.20
2018-04-14T07:27:25.745Z,12.30
2018-04-14T07:29:52.763Z,12.40
2018-04-14T07:32:20.175Z,12.40
2018-04-14T07:34:47.416Z,12.50
2018-04-14T07:37:14.889Z,12.60
2018-04-14T07:39:42.270Z,12.80
2018-04-14T07:42:09.573Z,12.80
2018-04-14T07:44:36.954Z,12.90
2018-04-14T07:47:04.049Z,13.00
2018-04-14T07:49:31.420Z,13.10
2018-04-14T07:51:58.675Z,13.20
2018-04-14T07:54:32.714Z,13.30
2018-04-14T07:56:59.817Z,13.30
2018-04-14T07:59:26.978Z,13.40
2018-04-14T08:01:54.084Z,13.40
2018-04-14T08:04:21.229Z,13.50
2018-04-14T08:06:49.041Z,13.70
2018-04-14T08:09:16.914Z,13.90
2018-04-14T08:11:44.025Z,13.90
2018-04-14T08:14:11.092Z,13.90
2018-04-14T08:16:38.310Z,14.00
2018-04-14T08:19:05.403Z,14.10
2018-04-14T08:21:32.517Z,14.20
2018-04-14T08:23:59.613Z,14.30
2018-04-14T08:26:26.756Z,14.40
2018-04-14T08:28:54.542Z,14.50
2018-04-14T08:31:21.581Z,14.50
2018-04-14T08:33:48.889Z,14.60
2018-04-14T08:36:16.029Z,14.70
2018-04-14T08:38:44.107Z,14.80
2018-04-14T08:41:11.214Z,15.00
2018-04-14T08:43:38.229Z,15.10
2018-04-14T08:46:06.533Z,15.30
2018-04-14T08:48:33.788Z,15.20
2018-04-14T08:51:01.001Z,15.40
2018-04-14T08:53:28.300Z,15.60
2018-04-14T08:55:55.384Z,15.60
2018-04-14T08:58:22.513Z,15.70
2018-04-14T09:00:49.556Z,15.70
2018-04-14T09:03:16.789Z,15.80
2018-04-14T09:05:44.529Z,16.10
2018-04-14T09:08:11.841Z,16.10
2018-04-14T09:10:39.039Z,16.20
2018-04-14T09:13:06.797Z,16.20
2018-04-14T09:15:34.568Z,16.30
2018-04-14T09:18:02.652Z,16.40
2018-04-14T09:20:30.685Z,16.40
2018-04-14T09:22:57.875Z,16.40
2018-04-14T09:25:24.973Z,16.40
2018-04-14T09:27:52.221Z,16.50
2018-04-14T09:30:19.303Z,16.60
2018-04-14T09:32:46.323Z,16.70
2018-04-14T09:35:13.978Z,16.70
2018-04-14T09:37:41.793Z,16.90
2018-04-14T09:40:09.864Z,17.00
2018-04-14T09:42:37.740Z,17.10
2018-04-14T09:45:05.024Z,17.10
2018-04-14T09:47:32.054Z,17.20
2018-04-14T09:49:59.081Z,17.20
2018-04-14T09:52:27.300Z,17.20
2018-04-14T09:54:54.477Z,17.20
2018-04-14T09:57:21.654Z,17.30
2018-04-14T09:59:49.436Z,17.40
2018-04-14T10:02:16.493Z,17.40
2018-04-14T10:04:43.748Z,17.60
2018-04-14T10:07:10.943Z,17.80
2018-04-14T10:09:38.002Z,18.00
2018-04-14T10:12:05.061Z,18.10
2018-04-14T10:14:32.849Z,18.20
2018-04-14T10:17:00.829Z,18.30
2018-04-14T10:19:27.916Z,18.20
2018-04-14T10:21:55.713Z,18.50
2018-04-14T10:24:22.891Z,18.50
2018-04-14T10:26:50.685Z,18.70
2018-04-14T10:29:17.700Z,18.70
2018-04-14T10:31:44.701Z,18.90
2018-04-14T10:34:12.088Z,19.00
2018-04-14T10:36:39.936Z,19.30
2018-04-14T10:39:08.315Z,19.40
2018-04-14T10:41:36.071Z,19.30
2018-04-14T10:44:04.025Z,19.40
2018-04-14T10:46:31.808Z,19.50
2018-04-14T10:48:59.580Z,19.60
2018-04-14T10:51:27.514Z,19.80
2018-04-14T10:53:54.556Z,19.80
2018-04-14T10:56:22.392Z,20.00
2018-04-14T10:58:49.560Z,20.00
2018-04-14T11:01:16.744Z,20.10
2018-04-14T11:03:44.426Z,20.10
2018-04-14T11:06:11.529Z,20.00
2018-04-14T11:08:38.922Z,20.10
2018-04-14T11:11:06.737Z,20.50
2018-04-14T11:13:33.822Z,20.50
2018-04-14T11:16:01.693Z,20.70
2018-04-14T11:18:29.764Z,20.90
2018-04-14T11:20:57.107Z,20.80
2018-04-14T11:23:24.148Z,21.00
2018-04-14T11:25:51.205Z,21.30
2018-04-14T11:28:18.298Z,21.30
2018-04-14T11:30:45.329Z,21.40
2018-04-14T11:33:12.398Z,21.50
2018-04-14T11:35:39.563Z,21.70
2018-04-14T11:38:06.641Z,21.90
2018-04-14T11:40:38.049Z,22.10
2018-04-14T11:43:05.337Z,22.40
2018-04-14T11:45:33.298Z,22.90
2018-04-14T11:48:00.515Z,22.90
2018-04-14T11:50:27.628Z,23.30
2018-04-14T11:52:54.863Z,23.10
2018-04-14T11:55:21.962Z,23.30
2018-04-14T11:57:49.200Z,23.50
2018-04-14T12:00:17.037Z,24.40
2018-04-14T12:02:44.142Z,24.40
2018-04-14T12:05:11.381Z,25.00
2018-04-14T12:07:38.506Z,25.50
2018-04-14T12:10:05.630Z,25.90
2018-04-14T12:12:32.711Z,25.80
2018-04-14T12:14:59.908Z,26.30
2018-04-14T12:17:27.756Z,27.30
2018-04-14T12:19:55.489Z,27.20
2018-04-14T12:22:23.976Z,27.90
2018-04-14T12:24:51.848Z,28.80
2018-04-14T12:27:20.041Z,28.70
2018-04-14T12:29:49.661Z,29.00
2018-04-14T12:32:16.969Z,29.20
2018-04-14T12:34:45.135Z,28.70
2018-04-14T12:37:12.268Z,28.70
2018-04-14T12:39:40.197Z,28.50
2018-04-14T12:42:07.522Z,28.50
2018-04-14T12:44:34.743Z,28.60
2018-04-14T12:47:01.930Z,28.80
2018-04-14T12:49:29.058Z,29.20
2018-04-14T12:51:56.279Z,29.00
2018-04-14T12:54:23.399Z,29.20
2018-04-14T12:56:50.579Z,29.30
2018-04-14T12:59:17.831Z,29.40
2018-04-14T13:01:45.621Z,28.50
2018-04-14T13:04:12.808Z,28.50
2018-04-14T13:06:39.976Z,28.60
2018-04-14T13:09:07.041Z,28.20
2018-04-14T13:11:34.113Z,27.90
2018-04-14T13:14:01.193Z,28.10
2018-04-14T13:16:29.001Z,28.40
2018-04-14T13:18:56.525Z,28.40
2018-04-14T13:21:23.668Z,29.20
2018-04-14T13:23:50.726Z,28.50
2018-04-14T13:26:17.751Z,29.00
2018-04-14T13:28:46.053Z,29.90
2018-04-14T13:31:13.851Z,29.80
2018-04-14T13:33:41.685Z,29.60
2018-04-14T13:36:08.865Z,29.50
2018-04-14T13:38:36.088Z,30.10
2018-04-14T13:41:03.117Z,29.90
2018-04-14T13:43:30.172Z,30.30
2018-04-14T13:45:57.989Z,30.30
2018-04-14T13:48:25.018Z,30.30
2018-04-14T13:50:52.787Z,30.40
2018-04-14T13:53:19.813Z,30.40
2018-04-14T13:55:47.577Z,30.10
2018-04-14T13:58:15.364Z,30.20
2018-04-14T14:00:43.188Z,29.80
2018-04-14T14:03:11.217Z,29.30
2018-04-14T14:05:38.244Z,29.30
2018-04-14T14:08:05.520Z,29.30
2018-04-14T14:10:32.762Z,28.70
2018-04-14T14:12:59.997Z,28.70
2018-04-14T14:15:27.225Z,29.40
2018-04-14T14:17:55.205Z,30.10
2018-04-14T14:20:22.292Z,30.10
2018-04-14T14:22:49.296Z,29.70
2018-04-14T14:25:17.630Z,29.90
2018-04-14T14:27:44.734Z,29.90
2018-04-14T14:30:12.542Z,28.40
2018-04-14T14:32:39.766Z,28.40
2018-04-14T14:35:06.910Z,28.70
2018-04-14T14:37:34.081Z,28.90
2018-04-14T14:40:01.899Z,28.70
2018-04-14T14:42:30.035Z,28.30
2018-04-14T14:44:57.160Z,28.30
2018-04-14T14:47:24.406Z,27.60
2018-04-14T14:49:57.805Z,27.50
2018-04-14T14:52:24.887Z,27.70
2018-04-14T14:54:52.031Z,27.60
2018-04-14T14:57:19.136Z,27.30
2018-04-14T14:59:46.319Z,27.00
2018-04-14T15:02:14.284Z,27.10
2018-04-14T15:04:41.530Z,27.00
2018-04-14T15:07:08.664Z,26.90
2018-04-14T15:09:35.844Z,26.00
2018-04-14T15:12:02.968Z,25.50
2018-04-14T15:14:30.030Z,24.90
2018-04-14T15:16:57.039Z,24.40
2018-04-14T15:19:24.790Z,23.60
2018-04-14T15:21:52.541Z,23.30
2018-04-14T15:24:19.544Z,23.20
2018-04-14T15:26:46.569Z,23.40
2018-04-14T15:29:13.593Z,23.40
2018-04-14T15:31:40.803Z,23.40
2018-04-14T15:34:08.948Z,23.00
2018-04-14T15:36:35.992Z,23.00
2018-04-14T15:39:03.598Z,22.90
2018-04-14T15:41:30.621Z,22.50
2018-04-14T15:43:57.649Z,22.40
2018-04-14T15:46:24.785Z,22.10
2018-04-14T15:48:52.085Z,22.10
2018-04-14T15:51:19.913Z,22.00
2018-04-14T15:53:46.963Z,22.00
2018-04-14T15:56:14.193Z,22.00
2018-04-14T15:58:41.305Z,22.00
2018-04-14T16:01:08.288Z,21.90
2018-04-14T16:03:44.626Z,21.80
2018-04-14T16:06:03.124Z,21.80
2018-04-14T16:08:30.152Z,21.70
2018-04-14T16:10:57.452Z,21.60
2018-04-14T16:13:24.802Z,21.50
2018-04-14T16:15:52.951Z,21.40
2018-04-14T16:18:20.156Z,21.40
2018-04-14T16:20:47.360Z,21.40
2018-04-14T16:23:14.532Z,21.40
2018-04-14T16:25:41.761Z,21.40
2018-04-14T16:28:08.838Z,21.30
2018-04-14T16:30:35.857Z,21.20
2018-04-14T16:33:03.176Z,21.20
2018-04-14T16:35:30.508Z,21.10
2018-04-14T16:37:57.812Z,21.00
2018-04-14T16:40:24.885Z,20.90
2018-04-14T16:42:51.872Z,20.90
2018-04-14T16:45:19.610Z,20.90
2018-04-14T16:47:46.619Z,20.80
2018-04-14T16:50:13.883Z,20.80
2018-04-14T16:52:41.701Z,20.70
2018-04-14T16:55:09.661Z,20.70
2018-04-14T16:57:36.723Z,20.60
2018-04-14T17:00:04.788Z,20.60
2018-04-14T17:02:32.150Z,20.60
2018-04-14T17:04:59.357Z,20.60
2018-04-14T17:07:26.592Z,20.50
2018-04-14T17:09:54.396Z,20.50
2018-04-14T17:12:21.417Z,20.40
2018-04-14T17:14:48.769Z,20.50
2018-04-14T17:17:15.826Z,20.40
2018-04-14T17:19:42.839Z,20.40
2018-04-14T17:22:09.849Z,20.20
2018-04-14T17:24:37.876Z,20.10
2018-04-14T17:27:05.268Z,20.10
2018-04-14T17:29:32.505Z,20.10
2018-04-14T17:32:00.441Z,20.00
2018-04-14T17:34:27.609Z,19.90
2018-04-14T17:36:55.776Z,19.90
2018-04-14T17:39:23.713Z,19.80
2018-04-14T17:41:50.800Z,19.70
2018-04-14T17:44:17.864Z,19.60
2018-04-14T17:46:44.883Z,19.60
2018-04-14T17:49:12.152Z,19.50
2018-04-14T17:51:39.600Z,19.40
2018-04-14T17:54:06.725Z,19.30
2018-04-14T17:56:34.720Z,19.00
2018-04-14T17:59:01.976Z,19.00
2018-04-14T18:01:29.043Z,18.80
2018-04-14T18:03:56.337Z,18.70
2018-04-14T18:06:24.206Z,18.40
2018-04-14T18:08:51.212Z,18.30
2018-04-14T18:11:18.240Z,18.20
2018-04-14T18:13:45.528Z,18.10
2018-04-14T18:16:12.784Z,17.90
2018-04-14T18:18:40.056Z,17.80
2018-04-14T18:21:07.109Z,17.70
2018-04-14T18:23:34.393Z,17.60
2018-04-14T18:26:01.517Z,17.50
2018-04-14T18:28:29.185Z,17.40
2018-04-14T18:30:56.345Z,17.30
2018-04-14T18:33:23.648Z,17.20
2018-04-14T18:35:51.704Z,17.00
2018-04-14T18:38:19.519Z,16.90
2018-04-14T18:40:46.525Z,16.90
2018-04-14T18:43:13.701Z,16.80
2018-04-14T18:45:41.693Z,16.70
2018-04-14T18:48:08.880Z,16.60
2018-04-14T18:50:36.150Z,16.60
2018-04-14T18:53:04.046Z,16.40
2018-04-14T18:55:31.188Z,16.30
2018-04-14T18:57:58.461Z,16.30
2018-04-14T19:00:25.737Z,16.30
2018-04-14T19:02:53.244Z,16.20
2018-04-14T19:05:20.661Z,16.10
2018-04-14T19:07:47.860Z,16.10
2018-04-14T19:10:15.157Z,16.00
2018-04-14T19:12:43.141Z,15.80
2018-04-14T19:15:10.335Z,15.70
2018-04-14T19:17:37.638Z,15.70
2018-04-14T19:20:04.969Z,15.60
2018-04-14T19:22:32.128Z,15.50
2018-04-14T19:24:59.124Z,15.40
2018-04-14T19:27:26.371Z,15.30
2018-04-14T19:29:53.424Z,15.20
2018-04-14T19:32:21.419Z,15.00
2018-04-14T19:34:48.678Z,15.00
2018-04-14T19:37:15.725Z,14.90
2018-04-14T19:39:43.750Z,14.80
2018-04-14T19:42:10.861Z,14.80
2018-04-14T19:44:38.149Z,14.70
2018-04-14T19:47:05.239Z,14.70
2018-04-14T19:49:32.988Z,14.50
2018-04-14T19:52:00.736Z,14.50
2018-04-14T19:54:28.559Z,14.40
2018-04-14T19:56:55.726Z,14.40
2018-04-14T19:59:23.060Z,14.30
2018-04-14T20:01:50.056Z,14.30
2018-04-14T20:04:18.025Z,14.30
2018-04-14T20:06:45.252Z,14.30
2018-04-14T20:09:12.518Z,14.30
2018-04-14T20:11:39.800Z,14.30
2018-04-14T20:14:06.862Z,14.30
2018-04-14T20:16:33.901Z,14.20
2018-04-14T20:19:01.070Z,14.30
2018-04-14T20:21:28.289Z,14.30
2018-04-14T20:23:55.532Z,14.40
2018-04-14T20:26:22.696Z,14.40
2018-04-14T20:28:50.037Z,14.50
2018-04-14T20:31:17.536Z,14.50
2018-04-14T20:33:44.727Z,14.50
2018-04-14T20:36:11.801Z,14.50
2018-04-14T20:38:39.584Z,14.60
2018-04-14T20:41:06.759Z,14.70
2018-04-14T20:43:34.562Z,14.80
2018-04-14T20:46:01.781Z,14.80
2018-04-14T20:48:29.059Z,14.90
2018-04-14T20:50:56.999Z,14.90
2018-04-14T20:53:24.106Z,14.80
2018-04-14T20:55:51.324Z,14.90
2018-04-14T20:58:18.436Z,14.80
2018-04-14T21:00:45.701Z,14.80
2018-04-14T21:03:12.941Z,14.80
2018-04-14T21:05:40.767Z,14.70
2018-04-14T21:08:08.525Z,14.70
2018-04-14T21:10:35.844Z,14.70
2018-04-14T21:13:02.981Z,14.70
2018-04-14T21:15:30.140Z,14.70
2018-04-14T21:17:57.308Z,14.70
2018-04-14T21:20:24.364Z,14.60
2018-04-14T21:22:51.397Z,14.60
2018-04-14T21:25:18.588Z,14.50
2018-04-14T21:27:45.681Z,14.50
2018-04-14T21:30:12.990Z,14.40
2018-04-14T21:32:40.272Z,14.40
2018-04-14T21:35:07.293Z,14.40
2018-04-14T21:37:34.603Z,14.40
2018-04-14T21:40:01.778Z,14.50
2018-04-14T21:42:28.810Z,14.50
2018-04-14T21:44:56.101Z,14.50
2018-04-14T21:47:23.223Z,14.50
2018-04-14T21:49:50.463Z,14.50
2018-04-14T21:52:17.587Z,14.60
2018-04-14T21:54:44.580Z,14.50
2018-04-14T21:57:12.333Z,14.50
2018-04-14T21:59:39.582Z,14.50
2018-04-14T22:02:06.796Z,14.50
2018-04-14T22:04:33.816Z,14.50
2018-04-14T22:07:01.008Z,14.50
2018-04-14T22:09:28.141Z,14.50
2018-04-14T22:11:55.330Z,14.50
2018-04-14T22:14:32.686Z,14.50
2018-04-14T22:16:59.932Z,14.50
2018-04-14T22:19:27.799Z,14.60
2018-04-14T22:21:54.788Z,14.50
2018-04-14T22:24:21.802Z,14.60
2018-04-14T22:26:49.071Z,14.60
2018-04-14T22:29:17.049Z,14.70
2018-04-14T22:31:44.129Z,14.60
2018-04-14T22:34:11.137Z,14.70
2018-04-14T22:36:38.160Z,14.70
2018-04-14T22:39:05.197Z,14.70
2018-04-14T22:41:32.385Z,14.80
2018-04-14T22:43:59.546Z,14.70
2018-04-14T22:46:26.555Z,14.70
2018-04-14T22:48:54.616Z,14.70
2018-04-14T22:51:21.814Z,14.70
2018-04-14T22:53:48.891Z,14.70
2018-04-14T22:56:16.111Z,14.70
2018-04-14T22:58:44.072Z,14.50
2018-04-14T23:01:11.198Z,14.50
2018-04-14T23:03:38.369Z,14.50
2018-04-14T23:06:06.302Z,14.50
2018-04-14T23:08:33.505Z,14.50
2018-04-14T23:11:00.612Z,14.40
2018-04-14T23:13:28.534Z,14.30
2018-04-14T23:15:55.668Z,14.30
2018-04-14T23:18:22.913Z,14.30
2018-04-14T23:20:50.125Z,14.20
2018-04-14T23:23:17.136Z,14.20
2018-04-14T23:25:45.164Z,14.10
2018-04-14T23:28:12.257Z,14.10
2018-04-14T23:30:39.484Z,14.00
2018-04-14T23:33:06.822Z,14.00
2018-04-14T23:35:34.614Z,13.90
2018-04-14T23:38:02.638Z,13.80
2018-04-14T23:40:29.753Z,13.80
2018-04-14T23:42:57.659Z,13.70
2018-04-14T23:45:25.578Z,13.70
2018-04-14T23:47:52.718Z,13.70
2018-04-14T23:50:19.796Z,13.60
2018-04-14T23:52:46.812Z,13.60
2018-04-14T23:55:13.804Z,13.60
2018-04-14T23:57:41.076Z,13.50
